createdAt,value
2023-03-02T00:02:32.516Z,115.76
2023-03-02T00:05:41.990Z,116.21
2023-03-02T00:08:48.880Z,121.91
2023-03-02T00:11:55.789Z,121.02
2023-03-02T00:15:01.716Z,117.43
2023-03-02T00:18:11.203Z,113.56
2023-03-02T00:21:17.545Z,118.15
2023-03-02T00:24:24.259Z,119.89
2023-03-02T00:27:30.363Z,122.06
2023-03-02T00:30:37.140Z,131.01
2023-03-02T00:33:46.406Z,136.28
2023-03-02T00:36:53.258Z,136.33
2023-03-02T00:39:59.266Z,135.83
2023-03-02T00:43:06.144Z,135.01
2023-03-02T00:46:14.569Z,134.48
2023-03-02T00:49:23.924Z,136.06
2023-03-02T00:52:29.905Z,134.27
2023-03-02T00:55:36.478Z,135.61
2023-03-02T00:58:42.617Z,137.94
2023-03-02T01:01:58.414Z,138.46
2023-03-02T01:05:09.966Z,136.28
2023-03-02T01:08:16.904Z,130.31
2023-03-02T01:11:25.984Z,131.74
2023-03-02T01:14:34.727Z,128.49
2023-03-02T01:17:41.476Z,129.07
2023-03-02T01:20:50.601Z,132.17
2023-03-02T01:23:56.443Z,136.65
2023-03-02T01:27:06.150Z,135.00
2023-03-02T01:30:14.339Z,133.45
2023-03-02T01:33:21.460Z,134.36
2023-03-02T01:36:30.981Z,134.26
2023-03-02T01:39:37.919Z,133.71
2023-03-02T01:43:02.497Z,132.53
2023-03-02T01:46:17.363Z,133.96
2023-03-02T01:49:31.647Z,136.83
2023-03-02T01:52:43.364Z,136.79
2023-03-02T01:55:50.638Z,137.58
2023-03-02T01:59:04.330Z,134.75
2023-03-02T02:02:14.834Z,134.43
2023-03-02T02:05:28.313Z,136.23
2023-03-02T02:08:38.102Z,136.52
2023-03-02T02:11:46.095Z,139.12
2023-03-02T02:14:54.287Z,141.38
2023-03-02T02:18:01.010Z,142.63
2023-03-02T02:21:08.551Z,138.22
2023-03-02T02:24:28.081Z,137.12
2023-03-02T02:27:36.780Z,133.56
2023-03-02T02:30:46.575Z,131.84
2023-03-02T02:34:00.577Z,131.33
2023-03-02T02:37:16.531Z,130.49
2023-03-02T02:40:44.727Z,129.98
2023-03-02T02:43:58.475Z,129.20
2023-03-02T02:47:05.861Z,127.07
2023-03-02T02:50:23.744Z,128.05
2023-03-02T02:53:38.085Z,127.70
2023-03-02T02:56:47.439Z,127.92
2023-03-02T03:00:04.060Z,126.87
2023-03-02T03:03:31.986Z,126.04
2023-03-02T03:06:42.418Z,127.58
2023-03-02T03:10:03.490Z,128.37
2023-03-02T03:13:11.416Z,127.73
2023-03-02T03:16:24.057Z,124.23
2023-03-02T03:19:33.336Z,120.76
2023-03-02T03:22:42.219Z,117.72
2023-03-02T03:25:50.048Z,115.54
2023-03-02T03:28:57.428Z,117.22
2023-03-02T03:32:08.438Z,115.99
2023-03-02T03:35:15.762Z,113.52
2023-03-02T03:38:22.112Z,111.50
2023-03-02T03:41:30.429Z,108.62
2023-03-02T03:44:36.564Z,106.82
2023-03-02T03:47:45.798Z,108.98
2023-03-02T03:50:52.245Z,114.71
2023-03-02T03:54:08.542Z,128.81
2023-03-02T03:57:17.615Z,135.70
2023-03-02T04:00:26.260Z,152.63
2023-03-02T04:03:40.029Z,147.19
2023-03-02T04:06:47.775Z,152.26
2023-03-02T04:10:03.615Z,147.86
2023-03-02T04:13:14.141Z,141.26
2023-03-02T04:16:20.244Z,139.89
2023-03-02T04:19:29.638Z,144.07
2023-03-02T04:22:37.308Z,145.15
2023-03-02T04:25:44.191Z,136.09
2023-03-02T04:28:54.150Z,128.44
2023-03-02T04:32:01.705Z,124.07
2023-03-02T04:35:12.789Z,121.38
2023-03-02T04:38:19.781Z,124.83
2023-03-02T04:41:26.667Z,123.23
2023-03-02T04:44:33.245Z,122.35
2023-03-02T04:47:39.294Z,119.30
2023-03-02T04:50:49.019Z,116.93
2023-03-02T04:53:57.509Z,113.53
2023-03-02T04:57:04.227Z,110.66
2023-03-02T05:00:13.147Z,110.35
2023-03-02T05:03:22.242Z,114.38
2023-03-02T05:06:31.155Z,116.22
2023-03-02T05:09:39.500Z,117.08
2023-03-02T05:12:58.359Z,118.92
2023-03-02T05:16:05.175Z,123.99
2023-03-02T05:19:18.055Z,126.72
2023-03-02T05:22:27.280Z,131.27
2023-03-02T05:25:37.144Z,144.80
2023-03-02T05:28:47.077Z,153.00
2023-03-02T05:31:53.574Z,190.53
2023-03-02T05:35:00.661Z,246.52
2023-03-02T05:38:09.454Z,247.98
2023-03-02T05:41:16.062Z,220.79
2023-03-02T05:44:22.109Z,200.27
2023-03-02T05:47:28.764Z,196.10
2023-03-02T05:50:34.999Z,196.28
2023-03-02T05:53:44.180Z,225.38
2023-03-02T05:56:50.444Z,241.17
2023-03-02T05:59:57.048Z,220.59
2023-03-02T06:03:06.358Z,197.10
2023-03-02T06:06:14.453Z,172.66
2023-03-02T06:09:22.997Z,170.39
2023-03-02T06:12:29.834Z,168.53
2023-03-02T06:15:35.744Z,152.56
2023-03-02T06:18:46.149Z,149.48
2023-03-02T06:21:51.929Z,142.62
2023-03-02T06:25:01.077Z,128.92
2023-03-02T06:28:09.852Z,127.41
2023-03-02T06:31:16.451Z,128.75
2023-03-02T06:34:22.274Z,126.71
2023-03-02T06:37:28.991Z,122.13
2023-03-02T06:40:40.015Z,111.28
2023-03-02T06:43:46.840Z,107.15
2023-03-02T06:46:52.661Z,107.27
2023-03-02T06:49:59.495Z,105.36
2023-03-02T06:53:05.758Z,105.86
2023-03-02T06:56:14.979Z,104.25
2023-03-02T06:59:20.731Z,103.80
2023-03-02T07:02:27.332Z,101.79
2023-03-02T07:05:34.051Z,98.85
2023-03-02T07:08:40.635Z,92.09
2023-03-02T07:11:49.069Z,96.22
2023-03-02T07:14:55.608Z,103.30
2023-03-02T07:18:01.604Z,102.73
2023-03-02T07:21:09.334Z,98.92
2023-03-02T07:24:15.118Z,90.65
2023-03-02T07:27:24.535Z,87.02
2023-03-02T07:30:32.743Z,83.17
2023-03-02T07:33:40.257Z,82.27
2023-03-02T07:36:45.965Z,79.26
2023-03-02T07:39:54.224Z,75.38
2023-03-02T07:43:02.778Z,74.88
2023-03-02T07:46:09.706Z,72.46
2023-03-02T07:49:15.601Z,70.72
2023-03-02T07:52:22.169Z,71.79
2023-03-02T07:55:28.051Z,70.61
2023-03-02T07:58:38.902Z,69.96
2023-03-02T08:01:44.822Z,71.60
2023-03-02T08:04:52.458Z,72.79
2023-03-02T08:07:58.275Z,72.23
2023-03-02T08:11:08.943Z,74.06
2023-03-02T08:14:17.579Z,73.45
2023-03-02T08:17:24.282Z,70.00
2023-03-02T08:20:30.378Z,68.69
2023-03-02T08:23:37.327Z,66.53
2023-03-02T08:26:44.853Z,60.34
2023-03-02T08:29:54.690Z,59.42
2023-03-02T08:33:04.425Z,63.12
2023-03-02T08:36:17.837Z,61.08
2023-03-02T08:39:23.965Z,58.99
2023-03-02T08:42:30.657Z,44.91
2023-03-02T08:45:40.805Z,35.62
2023-03-02T08:48:48.305Z,33.09
2023-03-02T08:51:56.462Z,32.23
2023-03-02T08:55:04.131Z,32.87
2023-03-02T08:58:10.078Z,32.75
2023-03-02T09:01:22.184Z,32.11
2023-03-02T09:04:28.024Z,30.84
2023-03-02T09:07:35.814Z,27.55
2023-03-02T09:10:42.180Z,28.97
2023-03-02T09:13:49.162Z,28.78
2023-03-02T09:16:57.555Z,28.10
2023-03-02T09:20:04.276Z,27.78
2023-03-02T09:23:11.202Z,26.98
2023-03-02T09:26:17.968Z,26.63
2023-03-02T09:29:23.824Z,26.60
2023-03-02T09:32:33.351Z,29.89
2023-03-02T09:35:42.131Z,27.64
2023-03-02T09:38:48.803Z,26.27
2023-03-02T09:42:44.397Z,25.72
2023-03-02T09:46:11.740Z,22.97
2023-03-02T09:49:35.816Z,23.92
2023-03-02T09:52:53.668Z,23.84
2023-03-02T09:56:02.649Z,22.64
2023-03-02T09:59:24.078Z,23.46
2023-03-02T10:02:38.367Z,22.94
2023-03-02T10:05:51.163Z,23.04
2023-03-02T10:08:58.119Z,22.33
2023-03-02T10:12:45.107Z,22.00
2023-03-02T10:16:11.643Z,22.68
2023-03-02T10:19:28.699Z,22.00
2023-03-02T10:22:49.486Z,22.02
2023-03-02T10:26:05.421Z,20.72
2023-03-02T10:29:42.751Z,19.67
2023-03-02T10:32:55.084Z,21.49
2023-03-02T10:36:01.330Z,21.65
2023-03-02T10:39:19.346Z,20.95
2023-03-02T10:42:33.889Z,20.29
2023-03-02T10:45:40.567Z,21.40
2023-03-02T10:48:56.367Z,21.22
2023-03-02T10:52:08.570Z,21.30
2023-03-02T10:55:20.193Z,20.98
2023-03-02T10:58:33.624Z,19.47
2023-03-02T11:01:39.473Z,18.31
2023-03-02T11:04:46.489Z,19.34
2023-03-02T11:07:57.703Z,20.38
2023-03-02T11:11:08.310Z,20.33
2023-03-02T11:14:20.388Z,21.08
2023-03-02T11:17:37.455Z,21.02
2023-03-02T11:20:50.217Z,21.11
2023-03-02T11:24:12.407Z,22.52
2023-03-02T11:27:30.657Z,20.70
2023-03-02T11:30:49.969Z,22.88
2023-03-02T11:34:18.034Z,21.68
2023-03-02T11:37:32.994Z,21.20
2023-03-02T11:40:49.842Z,20.17
2023-03-02T11:44:04.971Z,21.97
2023-03-02T11:47:16.295Z,22.06
2023-03-02T11:50:24.341Z,67.13
2023-03-02T11:53:44.452Z,66.37
2023-03-02T11:56:51.291Z,21.72
2023-03-02T12:00:02.496Z,22.05
2023-03-02T12:03:41.553Z,32.46
2023-03-02T12:06:47.347Z,23.75
2023-03-02T12:10:07.809Z,21.74
2023-03-02T12:13:26.234Z,22.24
2023-03-02T12:16:43.254Z,21.14
2023-03-02T12:19:51.761Z,22.84
2023-03-02T12:23:11.648Z,21.85
2023-03-02T12:26:34.054Z,21.30
2023-03-02T12:29:44.325Z,21.30
2023-03-02T12:33:07.035Z,21.26
2023-03-02T12:36:28.087Z,21.44
2023-03-02T12:40:11.686Z,19.47
2023-03-02T12:43:32.718Z,19.36
2023-03-02T12:46:41.121Z,18.59
2023-03-02T12:50:00.758Z,17.64
2023-03-02T12:53:10.075Z,19.44
2023-03-02T12:56:26.995Z,19.53
2023-03-02T12:59:32.992Z,18.76
2023-03-02T13:02:40.313Z,19.28
2023-03-02T13:05:50.169Z,19.11
2023-03-02T13:09:01.608Z,19.60
2023-03-02T13:12:08.194Z,20.00
2023-03-02T13:15:20.501Z,20.58
2023-03-02T13:18:32.167Z,19.52
2023-03-02T13:21:42.933Z,19.88
2023-03-02T13:24:54.810Z,18.90
2023-03-02T13:28:07.652Z,19.18
2023-03-02T13:31:28.081Z,23.12
2023-03-02T13:34:52.717Z,19.26
2023-03-02T13:38:07.721Z,18.21
2023-03-02T13:41:25.924Z,18.51
2023-03-02T13:44:37.632Z,24.53
2023-03-02T13:47:44.779Z,87.15
2023-03-02T13:51:03.037Z,54.36
2023-03-02T13:54:25.073Z,21.21
2023-03-02T13:57:35.743Z,24.04
2023-03-02T14:00:43.267Z,20.38
2023-03-02T14:03:49.226Z,27.76
2023-03-02T14:06:58.138Z,40.18
2023-03-02T14:10:07.344Z,33.29
2023-03-02T14:13:22.806Z,33.70
2023-03-02T14:16:28.597Z,33.48
2023-03-02T14:19:35.252Z,30.59
2023-03-02T14:22:41.063Z,28.57
2023-03-02T14:25:51.113Z,28.71
2023-03-02T14:29:05.585Z,27.94
2023-03-02T14:32:16.024Z,29.45
2023-03-02T14:35:21.963Z,27.00
2023-03-02T14:38:30.725Z,26.45
2023-03-02T14:41:52.865Z,27.19
2023-03-02T14:45:00.545Z,25.30
2023-03-02T14:48:06.859Z,23.80
2023-03-02T14:51:28.400Z,23.27
2023-03-02T14:54:43.846Z,38.23
2023-03-02T14:58:01.177Z,24.88
2023-03-02T15:01:08.624Z,23.35
2023-03-02T15:04:15.124Z,25.56
2023-03-02T15:07:27.714Z,23.04
2023-03-02T15:10:34.841Z,20.44
2023-03-02T15:13:45.724Z,21.13
2023-03-02T15:16:52.600Z,26.12
2023-03-02T15:19:58.822Z,23.64
2023-03-02T15:23:05.853Z,21.71
2023-03-02T15:26:14.920Z,21.12
2023-03-02T15:29:24.907Z,21.35
2023-03-02T15:32:30.798Z,21.50
2023-03-02T15:35:37.431Z,20.42
2023-03-02T15:38:43.449Z,21.91
2023-03-02T15:41:50.137Z,21.17
2023-03-02T15:44:58.636Z,24.46
2023-03-02T15:48:05.280Z,25.69
2023-03-02T15:51:12.940Z,38.58
2023-03-02T15:54:20.997Z,29.69
2023-03-02T15:57:26.823Z,26.96
2023-03-02T16:00:37.968Z,23.96
2023-03-02T16:03:43.842Z,23.00
2023-03-02T16:06:50.688Z,23.14
2023-03-02T16:09:56.796Z,29.04
2023-03-02T16:13:04.737Z,36.31
2023-03-02T16:16:13.553Z,40.67
2023-03-02T16:19:22.011Z,46.52
2023-03-02T16:22:28.013Z,43.72
2023-03-02T16:25:34.808Z,39.81
2023-03-02T16:28:40.700Z,39.44
2023-03-02T16:31:51.636Z,40.00
2023-03-02T16:34:58.049Z,39.42
2023-03-02T16:38:05.015Z,39.84
2023-03-02T16:41:19.219Z,39.04
2023-03-02T16:44:25.896Z,39.10
2023-03-02T16:47:34.515Z,36.35
2023-03-02T16:50:41.614Z,38.28
2023-03-02T16:53:48.229Z,35.10
2023-03-02T16:56:54.897Z,37.33
2023-03-02T17:00:05.772Z,35.46
2023-03-02T17:03:15.151Z,38.04
2023-03-02T17:06:30.296Z,50.34
2023-03-02T17:09:41.442Z,217.45
2023-03-02T17:12:50.266Z,357.03
2023-03-02T17:15:57.751Z,375.42
2023-03-02T17:19:06.208Z,287.22
2023-03-02T17:22:12.990Z,194.34
2023-03-02T17:25:19.229Z,149.02
2023-03-02T17:28:26.666Z,340.17
2023-03-02T17:31:32.584Z,214.08
2023-03-02T17:34:43.516Z,159.00
2023-03-02T17:37:49.609Z,108.05
2023-03-02T17:40:56.188Z,96.10
2023-03-02T17:44:02.610Z,94.28
2023-03-02T17:47:13.236Z,108.02
2023-03-02T17:50:22.390Z,110.06
2023-03-02T17:53:28.900Z,109.15
2023-03-02T17:56:34.824Z,111.78
2023-03-02T17:59:43.106Z,115.10
2023-03-02T18:02:49.367Z,112.97
2023-03-02T18:05:58.763Z,123.77
2023-03-02T18:09:08.204Z,108.83
2023-03-02T18:12:14.793Z,92.40
2023-03-02T18:15:20.792Z,77.20
2023-03-02T18:18:27.857Z,67.96
2023-03-02T18:21:36.889Z,81.32
2023-03-02T18:24:43.447Z,97.95
2023-03-02T18:27:49.620Z,115.89
2023-03-02T18:30:56.228Z,111.57
2023-03-02T18:34:02.177Z,110.60
2023-03-02T18:37:11.793Z,122.96
2023-03-02T18:40:18.510Z,137.37
2023-03-02T18:43:25.137Z,125.79
2023-03-02T18:46:35.058Z,148.75
2023-03-02T18:49:42.774Z,448.32
2023-03-02T18:52:53.073Z,164.06
2023-03-02T18:55:59.927Z,100.00
2023-03-02T18:59:07.391Z,91.88
2023-03-02T19:02:17.242Z,95.47
2023-03-02T19:05:27.092Z,105.20
2023-03-02T19:08:37.229Z,99.94
2023-03-02T19:11:43.154Z,103.63
2023-03-02T19:14:50.074Z,101.40
2023-03-02T19:17:57.369Z,106.50
2023-03-02T19:21:05.041Z,109.85
2023-03-02T19:24:13.773Z,103.24
2023-03-02T19:27:20.494Z,97.81
2023-03-02T19:30:30.069Z,94.43
2023-03-02T19:33:36.955Z,98.77
2023-03-02T19:36:42.900Z,85.11
2023-03-02T19:39:52.596Z,85.19
2023-03-02T19:42:58.820Z,97.41
2023-03-02T19:46:05.616Z,117.86
2023-03-02T19:49:11.599Z,103.02
2023-03-02T19:52:18.594Z,95.82
2023-03-02T19:55:28.952Z,94.42
2023-03-02T19:58:35.945Z,102.65
2023-03-02T20:01:42.245Z,100.86
2023-03-02T20:04:51.078Z,105.78
2023-03-02T20:07:58.027Z,106.66
2023-03-02T20:11:07.957Z,102.22
2023-03-02T20:14:27.625Z,106.34
2023-03-02T20:17:39.750Z,106.46
2023-03-02T20:20:47.403Z,108.70
2023-03-02T20:23:54.752Z,106.44
2023-03-02T20:27:03.727Z,102.58
2023-03-02T20:30:21.631Z,101.97
2023-03-02T20:33:32.456Z,100.92
2023-03-02T20:36:40.988Z,105.89
2023-03-02T20:39:49.869Z,103.00
2023-03-02T20:42:59.254Z,110.85
2023-03-02T20:46:05.969Z,102.91
2023-03-02T20:49:15.992Z,115.96
2023-03-02T20:52:21.830Z,120.28
2023-03-02T20:55:29.822Z,129.60
2023-03-02T20:58:41.315Z,119.78
2023-03-02T21:01:48.185Z,109.36
2023-03-02T21:04:54.429Z,110.76
2023-03-02T21:08:01.608Z,109.28
2023-03-02T21:11:08.098Z,107.66
2023-03-02T21:14:17.565Z,116.50
2023-03-02T21:17:24.471Z,112.55
2023-03-02T21:20:36.040Z,118.21
2023-03-02T21:23:42.747Z,162.95
2023-03-02T21:26:52.279Z,152.57
2023-03-02T21:30:03.456Z,146.08
2023-03-02T21:33:10.572Z,165.43
2023-03-02T21:36:22.360Z,151.98
2023-03-02T21:39:29.444Z,146.54
2023-03-02T21:42:35.317Z,157.36
2023-03-02T21:45:45.300Z,145.91
2023-03-02T21:48:53.625Z,135.95
2023-03-02T21:52:00.756Z,137.78
2023-03-02T21:55:06.976Z,137.96
2023-03-02T21:58:13.637Z,134.94
2023-03-02T22:01:22.251Z,140.15
2023-03-02T22:04:28.939Z,133.55
2023-03-02T22:07:35.075Z,125.16
2023-03-02T22:10:45.631Z,124.25
2023-03-02T22:13:54.077Z,127.35
2023-03-02T22:17:03.695Z,129.29
2023-03-02T22:20:20.596Z,134.61
2023-03-02T22:23:29.431Z,128.00
2023-03-02T22:26:35.851Z,142.65
2023-03-02T22:29:46.859Z,127.03
2023-03-02T22:32:58.385Z,121.50
2023-03-02T22:36:19.118Z,119.79
2023-03-02T22:39:36.355Z,120.12
2023-03-02T22:42:44.036Z,125.58
2023-03-02T22:45:51.195Z,126.10
2023-03-02T22:49:02.606Z,131.24
2023-03-02T22:52:21.170Z,131.20
2023-03-02T22:55:45.137Z,132.27
2023-03-02T22:58:53.739Z,132.55
2023-03-02T23:02:05.435Z,130.06
2023-03-02T23:05:29.846Z,129.86
2023-03-02T23:08:36.598Z,128.31
2023-03-02T23:11:45.118Z,134.02
2023-03-02T23:14:54.546Z,134.36
2023-03-02T23:18:01.608Z,139.20
2023-03-02T23:21:24.174Z,127.41
2023-03-02T23:24:30.125Z,127.39
2023-03-02T23:27:36.790Z,129.80
2023-03-02T23:30:42.763Z,126.97
2023-03-02T23:33:55.808Z,123.75
2023-03-02T23:37:10.240Z,114.81
2023-03-02T23:40:23.101Z,108.74
2023-03-02T23:43:29.266Z,108.66
2023-03-02T23:46:36.714Z,108.84
2023-03-02T23:49:42.617Z,105.28
2023-03-02T23:52:51.858Z,104.50
2023-03-02T23:55:58.815Z,114.57
2023-03-02T23:59:05.545Z,113.63
